Time;durP1;ratioP1;P1;durP2;ratioP2;P2;SDS_P1;SDS_P2;PMS_P1;PMS_P2;Temp;Humidity;BMP_temperature;BMP_pressure;BME280_temperature;BME280_humidity;BME280_pressure;Samples;Min_cycle;Max_cycle;Signal;HPM_P1;HPM_P2
2022/03/13 00:02:00;;;;;;;23.38;14.82;;;11.50;66.30;;;;;;5107185;28;20023;-60
2022/03/13 00:04:25;;;;;;;27.50;14.95;;;11.50;66.20;;;;;;5105307;28;20031;-60
2022/03/13 00:06:51;;;;;;;22.70;14.35;;;11.50;66.30;;;;;;5107497;28;20259;-61
2022/03/13 00:09:18;;;;;;;20.15;14.85;;;11.50;66.40;;;;;;5109997;28;20024;-60
2022/03/13 00:11:45;;;;;;;21.95;15.30;;;11.50;66.40;;;;;;5088673;28;20039;-60
2022/03/13 00:14:10;;;;;;;21.88;14.07;;;11.50;66.40;;;;;;5107369;28;20557;-59
2022/03/13 00:16:37;;;;;;;21.83;14.20;;;11.40;66.40;;;;;;5107890;28;20055;-60
2022/03/13 00:19:03;;;;;;;23.10;13.10;;;11.40;66.50;;;;;;5102596;28;20087;-61
2022/03/13 00:21:29;;;;;;;22.65;14.05;;;11.40;66.50;;;;;;5108213;28;20076;-60
2022/03/13 00:23:54;;;;;;;19.63;13.85;;;11.30;66.50;;;;;;5105667;28;20728;-59
2022/03/13 00:26:20;;;;;;;21.65;13.85;;;11.30;66.40;;;;;;5106811;28;20495;-59
2022/03/13 00:28:46;;;;;;;21.27;14.57;;;11.30;66.40;;;;;;5101612;28;20180;-61
2022/03/13 00:31:11;;;;;;;23.40;14.07;;;11.30;66.50;;;;;;5109440;28;20644;-60
2022/03/13 00:33:37;;;;;;;19.08;14.13;;;11.20;66.50;;;;;;5108823;28;20032;-60
2022/03/13 00:36:03;;;;;;;21.75;13.35;;;11.20;66.50;;;;;;5107202;28;20050;-60
2022/03/13 00:38:29;;;;;;;21.58;14.07;;;11.20;66.50;;;;;;5107544;28;20039;-60
2022/03/13 00:40:55;;;;;;;21.67;13.40;;;11.20;67.30;;;;;;5082093;28;20054;-61
2022/03/13 00:43:23;;;;;;;21.00;13.77;;;11.10;66.60;;;;;;5104987;28;20031;-59
2022/03/13 00:45:49;;;;;;;21.23;14.50;;;11.10;67.30;;;;;;5101559;28;20020;-60
2022/03/13 00:48:15;;;;;;;21.73;13.63;;;11.10;66.60;;;;;;5097935;28;20489;-60
2022/03/13 00:50:40;;;;;;;21.95;13.77;;;11.00;66.60;;;;;;5107991;28;20538;-60
2022/03/13 00:53:06;;;;;;;18.67;12.88;;;11.00;66.70;;;;;;5108284;28;20043;-60
2022/03/13 00:55:32;;;;;;;19.52;13.82;;;10.90;66.80;;;;;;5091136;28;20038;-60
2022/03/13 00:57:58;;;;;;;21.02;13.70;;;10.90;66.90;;;;;;5108240;28;20054;-61
2022/03/13 01:00:24;;;;;;;17.08;13.23;;;10.90;66.90;;;;;;5103847;28;20751;-60
2022/03/13 01:02:49;;;;;;;20.70;13.73;;;10.90;66.90;;;;;;5098645;28;20080;-60
2022/03/13 01:05:22;;;;;;;19.95;13.57;;;10.90;66.90;;;;;;5094846;28;20028;-60
2022/03/13 01:07:48;;;;;;;17.90;13.05;;;10.90;66.90;;;;;;5097878;28;20024;-59
2022/03/13 01:10:13;;;;;;;20.15;13.35;;;10.80;66.80;;;;;;5104680;28;20089;-60
2022/03/13 01:12:39;;;;;;;17.95;12.95;;;10.80;66.80;;;;;;5107502;28;20035;-60
2022/03/13 01:15:05;;;;;;;20.38;13.55;;;10.80;66.90;;;;;;5102603;28;20587;-60
2022/03/13 01:17:31;;;;;;;19.25;13.10;;;10.80;66.90;;;;;;5099727;28;20036;-61
2022/03/13 01:19:56;;;;;;;18.58;12.45;;;10.70;67.00;;;;;;5104773;28;20352;-60
2022/03/13 01:22:22;;;;;;;17.90;12.85;;;10.70;67.10;;;;;;5101508;28;20506;-60
2022/03/13 01:24:47;;;;;;;17.52;13.30;;;10.60;67.10;;;;;;5100262;28;20372;-60
2022/03/13 01:27:14;;;;;;;18.60;12.73;;;10.70;67.20;;;;;;5101167;28;20459;-60
2022/03/13 01:29:40;;;;;;;19.73;12.82;;;10.60;67.20;;;;;;5097462;28;20107;-61
2022/03/13 01:32:07;;;;;;;16.42;12.80;;;10.60;67.20;;;;;;5097399;28;20123;-60
2022/03/13 01:34:34;;;;;;;19.75;13.05;;;10.60;67.20;;;;;;5102250;28;20138;-60
2022/03/13 01:37:00;;;;;;;16.33;12.13;;;10.50;67.30;;;;;;5101146;28;20520;-60
2022/03/13 01:39:25;;;;;;;19.20;13.52;;;10.50;67.40;;;;;;5100097;28;20024;-61
2022/03/13 01:41:51;;;;;;;16.55;13.18;;;10.50;67.50;;;;;;5108055;28;20032;-60
2022/03/13 01:44:19;;;;;;;21.90;12.77;;;10.50;67.50;;;;;;5102167;28;20042;-61
2022/03/13 01:46:44;;;;;;;19.10;13.52;;;10.40;67.50;;;;;;5098645;28;20036;-60
2022/03/13 01:49:09;;;;;;;18.13;13.15;;;10.40;67.50;;;;;;5098800;28;20039;-60
2022/03/13 01:51:35;;;;;;;17.27;11.60;;;10.40;67.50;;;;;;5099613;28;20046;-59
2022/03/13 01:54:03;;;;;;;22.15;13.50;;;10.40;67.60;;;;;;5082836;28;20422;-60
2022/03/13 01:56:33;;;;;;;18.55;12.95;;;10.30;67.60;;;;;;5096200;28;20406;-60
2022/03/13 01:58:58;;;;;;;18.52;12.95;;;10.30;67.80;;;;;;5097565;28;20059;-61
2022/03/13 02:01:25;;;;;;;17.52;13.55;;;10.30;67.80;;;;;;5100759;28;20107;-60
2022/03/13 02:03:51;;;;;;;16.80;12.57;;;10.30;67.80;;;;;;5091025;28;20044;-61
2022/03/13 02:06:17;;;;;;;21.23;12.77;;;10.20;67.70;;;;;;5101517;28;20040;-60
2022/03/13 02:08:44;;;;;;;19.08;13.30;;;10.20;67.70;;;;;;5096479;28;20055;-60
2022/03/13 02:11:09;;;;;;;19.08;13.32;;;10.20;67.80;;;;;;5082817;28;20278;-60
2022/03/13 02:13:36;;;;;;;18.08;13.10;;;10.20;67.90;;;;;;5092103;28;20042;-60
2022/03/13 02:16:02;;;;;;;19.67;13.45;;;10.10;67.90;;;;;;5105273;28;20019;-61
2022/03/13 02:18:27;;;;;;;20.67;13.07;;;10.10;67.90;;;;;;5101232;28;20582;-61
2022/03/13 02:20:53;;;;;;;18.33;12.73;;;10.10;68.00;;;;;;5090818;28;20105;-61
2022/03/13 02:23:19;;;;;;;20.08;13.35;;;10.10;68.10;;;;;;5086792;28;20036;-61
2022/03/13 02:25:54;;;;;;;15.48;12.35;;;10.10;68.20;;;;;;5105512;28;20058;-60
2022/03/13 02:28:21;;;;;;;16.60;12.27;;;10.00;68.10;;;;;;5101850;28;20041;-60
2022/03/13 02:30:48;;;;;;;15.50;12.38;;;10.00;68.20;;;;;;5100196;28;20043;-61
2022/03/13 02:33:16;;;;;;;21.50;13.60;;;10.00;68.20;;;;;;5077339;28;20020;-60
2022/03/13 02:35:41;;;;;;;16.92;12.88;;;9.90;68.20;;;;;;5099172;28;20032;-60
2022/03/13 02:38:07;;;;;;;20.65;13.70;;;9.90;68.40;;;;;;5099080;28;20463;-61
2022/03/13 02:40:32;;;;;;;18.45;13.32;;;9.90;68.30;;;;;;5098699;28;20043;-61
2022/03/13 02:42:58;;;;;;;17.98;12.73;;;9.90;68.30;;;;;;5100810;28;20028;-60
2022/03/13 02:45:35;;;;;;;19.02;12.32;;;9.90;68.30;;;;;;5103093;28;20055;-61
2022/03/13 02:48:01;;;;;;;19.45;13.18;;;9.90;68.30;;;;;;5100349;28;20072;-61
2022/03/13 02:50:27;;;;;;;16.38;11.95;;;9.90;68.40;;;;;;5095579;28;20028;-60
2022/03/13 02:52:52;;;;;;;16.73;12.50;;;9.80;68.40;;;;;;5088111;28;20085;-60
2022/03/13 02:55:18;;;;;;;16.75;12.57;;;9.80;68.50;;;;;;5101053;28;20030;-60
2022/03/13 02:57:44;;;;;;;20.35;13.57;;;9.80;68.50;;;;;;5106279;28;20031;-61
2022/03/13 03:00:10;;;;;;;15.73;12.27;;;9.80;68.50;;;;;;5091210;28;20024;-59
2022/03/13 03:02:36;;;;;;;17.30;12.80;;;9.80;68.60;;;;;;5104851;28;20387;-61
2022/03/13 03:05:06;;;;;;;19.38;12.60;;;9.70;68.50;;;;;;5101478;28;20089;-60
2022/03/13 03:07:31;;;;;;;18.48;12.80;;;9.70;68.60;;;;;;5094439;28;20050;-60
2022/03/13 03:09:57;;;;;;;16.92;12.85;;;9.70;68.60;;;;;;5100411;28;20487;-60
2022/03/13 03:12:22;;;;;;;18.02;13.23;;;9.70;68.60;;;;;;5104837;28;20433;-60
2022/03/13 03:14:48;;;;;;;17.95;12.57;;;9.70;68.70;;;;;;5100378;28;20345;-60
2022/03/13 03:17:13;;;;;;;17.83;13.05;;;9.60;68.90;;;;;;5106635;28;20020;-60
2022/03/13 03:19:39;;;;;;;18.60;14.13;;;9.60;68.70;;;;;;5078605;28;20032;-61
2022/03/13 03:22:04;;;;;;;18.25;13.50;;;9.60;68.70;;;;;;5108143;28;20035;-60
2022/03/13 03:24:30;;;;;;;19.88;14.80;;;9.50;68.70;;;;;;5100157;28;20112;-61
2022/03/13 03:26:56;;;;;;;20.45;14.38;;;9.60;68.90;;;;;;5105032;28;20044;-60
2022/03/13 03:29:23;;;;;;;19.80;13.52;;;9.50;68.80;;;;;;5099303;28;20105;-60
2022/03/13 03:31:49;;;;;;;17.75;14.18;;;9.50;68.80;;;;;;5102164;28;20420;-60
2022/03/13 03:34:20;;;;;;;20.02;14.45;;;9.50;68.80;;;;;;5083632;28;20028;-60
2022/03/13 03:36:47;;;;;;;17.67;14.20;;;9.40;68.90;;;;;;5102212;28;20050;-60
2022/03/13 03:39:13;;;;;;;16.88;12.73;;;9.50;68.90;;;;;;5083396;28;20093;-60
2022/03/13 03:41:39;;;;;;;19.95;14.70;;;9.40;68.90;;;;;;5090354;28;20036;-61
2022/03/13 03:44:05;;;;;;;19.27;13.65;;;9.40;68.90;;;;;;5101675;28;20496;-61
2022/03/13 03:46:31;;;;;;;18.65;13.90;;;9.40;68.90;;;;;;5106676;28;20031;-60
2022/03/13 03:48:56;;;;;;;20.52;14.57;;;9.40;68.90;;;;;;5097381;28;20028;-60
2022/03/13 03:51:22;;;;;;;18.02;13.50;;;9.40;69.00;;;;;;5102844;28;20032;-60
2022/03/13 03:53:47;;;;;;;17.23;13.50;;;9.30;68.90;;;;;;5101125;28;20037;-61
2022/03/13 03:56:13;;;;;;;18.75;13.75;;;9.30;69.00;;;;;;5106113;28;20019;-59
2022/03/13 03:58:38;;;;;;;18.98;14.02;;;9.30;69.00;;;;;;5099394;28;20544;-60
2022/03/13 04:01:04;;;;;;;17.55;13.50;;;9.30;69.00;;;;;;5107412;28;20065;-61
2022/03/13 04:03:29;;;;;;;18.80;14.40;;;9.30;69.00;;;;;;5103436;28;20093;-60
2022/03/13 04:05:55;;;;;;;17.35;13.68;;;9.30;69.10;;;;;;5100874;28;20092;-61
2022/03/13 04:08:20;;;;;;;17.85;13.48;;;9.20;69.00;;;;;;5095908;28;20111;-61
2022/03/13 04:10:46;;;;;;;18.08;13.07;;;9.20;69.10;;;;;;5101886;28;20122;-60
2022/03/13 04:13:11;;;;;;;17.20;12.68;;;9.20;69.20;;;;;;5103231;28;20035;-61
2022/03/13 04:15:37;;;;;;;18.35;13.57;;;9.20;69.30;;;;;;5107077;28;20027;-61
2022/03/13 04:18:02;;;;;;;17.77;13.13;;;9.10;69.30;;;;;;5102992;28;20035;-60
2022/03/13 04:20:29;;;;;;;18.83;13.27;;;9.10;69.30;;;;;;5096845;28;20052;-60
2022/03/13 04:22:55;;;;;;;18.08;13.85;;;9.10;69.30;;;;;;5099654;28;20031;-61
2022/03/13 04:25:21;;;;;;;16.45;12.57;;;9.00;69.30;;;;;;5104254;28;20019;-60
2022/03/13 04:27:47;;;;;;;17.02;12.95;;;9.00;69.40;;;;;;5104360;28;20026;-60
2022/03/13 04:30:13;;;;;;;17.15;13.07;;;9.00;69.40;;;;;;5086590;28;20124;-60
2022/03/13 04:32:39;;;;;;;18.67;13.05;;;9.00;69.40;;;;;;5096126;28;20556;-61
2022/03/13 04:35:05;;;;;;;17.00;12.73;;;9.00;69.40;;;;;;5104218;27;20760;-59
2022/03/13 04:37:30;;;;;;;15.52;12.15;;;9.00;69.40;;;;;;5103243;28;20034;-61
2022/03/13 04:39:56;;;;;;;16.63;12.68;;;9.00;69.50;;;;;;5105121;28;20040;-60
2022/03/13 04:42:21;;;;;;;16.48;11.80;;;8.90;69.50;;;;;;5102383;28;20020;-60
2022/03/13 04:44:47;;;;;;;17.50;12.23;;;8.90;69.50;;;;;;5100682;28;20040;-61
2022/03/13 04:47:13;;;;;;;15.77;12.48;;;8.90;69.60;;;;;;5094648;28;20511;-59
2022/03/13 04:49:38;;;;;;;16.60;12.18;;;8.90;69.60;;;;;;5100224;28;20055;-61
2022/03/13 04:52:05;;;;;;;14.52;12.02;;;8.90;69.60;;;;;;5108371;28;20325;-60
2022/03/13 04:54:30;;;;;;;17.10;11.82;;;8.90;69.50;;;;;;5108278;28;20242;-60
2022/03/13 04:56:57;;;;;;;15.05;11.68;;;8.90;69.60;;;;;;5108171;28;20487;-60
2022/03/13 04:59:22;;;;;;;16.33;11.88;;;8.90;69.60;;;;;;5096337;27;20107;-61
2022/03/13 05:01:48;;;;;;;16.83;12.15;;;8.80;69.60;;;;;;5092980;28;20076;-60
2022/03/13 05:04:13;;;;;;;15.40;11.18;;;8.80;69.70;;;;;;5090069;28;20248;-60
2022/03/13 05:06:43;;;;;;;14.40;11.70;;;8.80;69.70;;;;;;5108692;28;20098;-61
2022/03/13 05:09:08;;;;;;;14.65;11.80;;;8.70;69.80;;;;;;5093950;28;20034;-60
2022/03/13 05:11:34;;;;;;;13.45;11.38;;;8.70;69.80;;;;;;5106169;28;20463;-60
2022/03/13 05:13:59;;;;;;;15.57;12.18;;;8.70;69.80;;;;;;5086076;28;20505;-60
2022/03/13 05:16:25;;;;;;;16.92;11.65;;;8.80;69.80;;;;;;5106472;28;20027;-60
2022/03/13 05:18:50;;;;;;;16.10;11.27;;;8.70;69.80;;;;;;5109115;28;20641;-60
2022/03/13 05:21:17;;;;;;;16.35;12.13;;;8.70;69.80;;;;;;5099552;28;20508;-61
2022/03/13 05:23:42;;;;;;;14.43;11.80;;;8.70;69.90;;;;;;5086632;28;20037;-61
2022/03/13 05:26:08;;;;;;;15.38;11.63;;;8.60;69.90;;;;;;5107375;28;20375;-60
2022/03/13 05:28:35;;;;;;;14.98;11.82;;;8.60;69.90;;;;;;5106792;28;20019;-60
2022/03/13 05:31:01;;;;;;;15.82;12.02;;;8.60;70.00;;;;;;5087672;28;20047;-61
2022/03/13 05:33:27;;;;;;;12.40;10.70;;;8.60;70.00;;;;;;5103819;28;20103;-60
2022/03/13 05:35:53;;;;;;;15.85;11.65;;;8.60;70.00;;;;;;5095859;28;20024;-60
2022/03/13 05:38:18;;;;;;;13.85;10.50;;;8.60;70.10;;;;;;5106434;28;20031;-60
2022/03/13 05:40:44;;;;;;;15.82;11.88;;;8.50;70.10;;;;;;5105911;28;20016;-60
2022/03/13 05:43:14;;;;;;;15.05;11.25;;;8.50;70.20;;;;;;5101832;28;20464;-59
2022/03/13 05:45:41;;;;;;;15.10;12.32;;;8.50;70.20;;;;;;5102672;28;20192;-60
2022/03/13 05:48:11;;;;;;;14.52;10.88;;;8.50;70.20;;;;;;5098124;28;20265;-60
2022/03/13 05:50:36;;;;;;;15.27;10.90;;;8.50;70.20;;;;;;5082535;28;20042;-61
2022/03/13 05:53:03;;;;;;;15.93;11.18;;;8.50;70.20;;;;;;5089102;28;20051;-61
2022/03/13 05:55:28;;;;;;;13.88;10.95;;;8.50;70.20;;;;;;5102955;28;20023;-60
2022/03/13 05:57:54;;;;;;;17.73;11.73;;;8.50;70.30;;;;;;5090138;28;20073;-60
2022/03/13 06:00:23;;;;;;;15.70;9.63;;;8.50;70.20;;;;;;5105657;28;20039;-59
2022/03/13 06:02:48;;;;;;;20.38;11.52;;;8.50;70.30;;;;;;5076259;28;20058;-60
2022/03/13 06:05:17;;;;;;;24.42;12.98;;;8.50;70.30;;;;;;5100778;28;20090;-61
2022/03/13 06:07:42;;;;;;;17.10;11.63;;;8.50;70.40;;;;;;5094621;28;20106;-60
2022/03/13 06:10:08;;;;;;;16.83;11.60;;;8.40;70.30;;;;;;5100189;28;20039;-60
2022/03/13 06:12:34;;;;;;;17.05;11.35;;;8.40;70.50;;;;;;5102938;28;20028;-60
2022/03/13 06:15:00;;;;;;;16.58;11.52;;;8.50;70.50;;;;;;5090025;28;20100;-61
2022/03/13 06:17:25;;;;;;;15.60;10.57;;;8.40;70.50;;;;;;5103556;28;20028;-60
2022/03/13 06:19:51;;;;;;;17.30;11.02;;;8.40;70.40;;;;;;5084836;28;20020;-61
2022/03/13 06:22:18;;;;;;;23.77;12.07;;;8.40;70.50;;;;;;5098830;28;20023;-60
2022/03/13 06:24:43;;;;;;;18.02;11.63;;;8.40;70.60;;;;;;5105221;28;20055;-60
2022/03/13 06:27:10;;;;;;;26.98;10.82;;;8.40;70.70;;;;;;5091817;28;20471;-61
2022/03/13 06:29:39;;;;;;;17.42;10.75;;;8.40;70.70;;;;;;5102516;28;20040;-60
2022/03/13 06:32:05;;;;;;;17.33;11.05;;;8.40;70.80;;;;;;5076494;28;20031;-61
2022/03/13 06:34:31;;;;;;;17.80;11.10;;;8.40;70.90;;;;;;5102482;28;20447;-60
2022/03/13 06:36:56;;;;;;;20.65;11.55;;;8.40;70.80;;;;;;5101822;28;20036;-60
2022/03/13 06:39:22;;;;;;;18.63;11.35;;;8.40;70.90;;;;;;5085451;28;20563;-60
2022/03/13 06:41:48;;;;;;;16.67;11.40;;;8.40;71.00;;;;;;5099983;28;20028;-60
2022/03/13 06:44:13;;;;;;;28.25;12.50;;;8.40;71.00;;;;;;5093766;28;20135;-60
2022/03/13 06:46:39;;;;;;;15.73;11.13;;;8.40;71.00;;;;;;5097773;28;20102;-59
2022/03/13 06:49:05;;;;;;;15.93;11.23;;;8.40;71.00;;;;;;5089448;28;20138;-60
2022/03/13 06:51:32;;;;;;;15.57;11.32;;;8.40;71.00;;;;;;5090241;28;20580;-60
2022/03/13 06:53:57;;;;;;;18.27;11.50;;;8.40;70.90;;;;;;5095975;28;20028;-60
2022/03/13 06:56:23;;;;;;;16.80;10.73;;;8.40;71.00;;;;;;5101117;28;20028;-60
2022/03/13 06:58:48;;;;;;;16.42;10.93;;;8.40;71.00;;;;;;5077443;28;20020;-60
2022/03/13 07:01:14;;;;;;;17.88;11.13;;;8.40;71.10;;;;;;5098325;28;20451;-61
2022/03/13 07:03:40;;;;;;;17.50;11.50;;;8.40;71.10;;;;;;5095173;28;20074;-60
2022/03/13 07:06:05;;;;;;;17.77;10.68;;;8.40;71.10;;;;;;5099656;28;20023;-61
2022/03/13 07:08:34;;;;;;;18.98;12.07;;;8.40;71.10;;;;;;5098844;28;20105;-60
2022/03/13 07:11:01;;;;;;;18.20;11.43;;;8.40;71.20;;;;;;5095843;28;20058;-60
2022/03/13 07:13:32;;;;;;;17.58;10.68;;;8.40;71.30;;;;;;5095622;28;20036;-60
2022/03/13 07:16:03;;;;;;;16.35;11.10;;;8.30;71.30;;;;;;5097821;28;20542;-59
2022/03/13 07:18:31;;;;;;;15.77;11.60;;;8.30;71.40;;;;;;5102471;28;20023;-60
2022/03/13 07:20:57;;;;;;;18.88;13.23;;;8.30;71.50;;;;;;5099163;28;20533;-60
2022/03/13 07:23:23;;;;;;;14.55;10.77;;;8.30;71.70;;;;;;5100199;28;20449;-61
2022/03/13 07:25:49;;;;;;;18.40;11.93;;;8.30;71.70;;;;;;5100340;28;20039;-59
2022/03/13 07:28:15;;;;;;;16.65;12.23;;;8.30;71.80;;;;;;5097070;28;20031;-59
2022/03/13 07:30:41;;;;;;;17.85;11.82;;;8.30;71.90;;;;;;5100014;28;20044;-60
2022/03/13 07:33:06;;;;;;;24.05;11.77;;;8.20;71.90;;;;;;5098899;28;20024;-60
2022/03/13 07:35:32;;;;;;;17.52;12.25;;;8.20;72.00;;;;;;5085990;28;20440;-60
2022/03/13 07:37:57;;;;;;;19.13;11.75;;;8.20;72.00;;;;;;5098594;28;20103;-60
2022/03/13 07:40:23;;;;;;;19.48;11.70;;;8.20;72.30;;;;;;5097961;28;20032;-60
2022/03/13 07:42:48;;;;;;;16.50;11.07;;;8.20;72.60;;;;;;5103125;28;20028;-60
2022/03/13 07:45:15;;;;;;;17.73;11.93;;;8.20;72.50;;;;;;5100653;28;20066;-60
2022/03/13 07:47:41;;;;;;;24.95;12.88;;;8.20;72.40;;;;;;5102764;28;20043;-60
2022/03/13 07:50:06;;;;;;;24.17;13.07;;;8.20;72.90;;;;;;5095424;28;20036;-60
2022/03/13 07:52:32;;;;;;;17.65;12.38;;;8.20;73.20;;;;;;5103648;28;20031;-60
2022/03/13 07:54:57;;;;;;;18.13;12.07;;;8.20;73.40;;;;;;5084637;28;20058;-60
2022/03/13 07:57:24;;;;;;;23.10;12.43;;;8.20;73.70;;;;;;5103916;28;20103;-59
2022/03/13 07:59:49;;;;;;;16.60;12.07;;;8.30;73.90;;;;;;5110687;28;20012;-60
2022/03/13 08:02:15;;;;;;;19.75;12.98;;;8.30;74.00;;;;;;5109014;27;20483;-60
2022/03/13 08:04:41;;;;;;;21.55;13.05;;;8.30;74.50;;;;;;5086116;28;20024;-61
2022/03/13 08:07:06;;;;;;;21.90;12.20;;;8.30;74.80;;;;;;5105259;28;20156;-60
2022/03/13 08:09:34;;;;;;;20.27;13.25;;;8.20;75.30;;;;;;5090790;28;20048;-60
2022/03/13 08:12:00;;;;;;;21.92;13.68;;;8.20;75.20;;;;;;5110017;28;20190;-60
2022/03/13 08:14:25;;;;;;;22.60;13.13;;;8.30;75.40;;;;;;5103722;28;20032;-60
2022/03/13 08:16:51;;;;;;;28.15;14.25;;;8.30;75.40;;;;;;5101140;28;20047;-60
2022/03/13 08:19:16;;;;;;;20.13;13.52;;;8.20;75.60;;;;;;5099581;28;20294;-59
2022/03/13 08:21:42;;;;;;;22.90;14.18;;;8.20;75.80;;;;;;5103285;28;20051;-60
2022/03/13 08:24:08;;;;;;;23.02;14.07;;;8.20;75.90;;;;;;5097247;28;20059;-60
2022/03/13 08:26:38;;;;;;;18.88;13.50;;;8.20;75.90;;;;;;5100266;28;20101;-60
2022/03/13 08:29:05;;;;;;;24.27;14.25;;;8.20;75.80;;;;;;5104926;28;20027;-60
2022/03/13 08:31:31;;;;;;;20.05;13.52;;;8.20;75.40;;;;;;5101239;28;20047;-60
2022/03/13 08:33:57;;;;;;;25.25;14.68;;;8.20;75.40;;;;;;5102257;28;20023;-60
2022/03/13 08:36:22;;;;;;;23.25;15.00;;;8.20;75.40;;;;;;5105521;28;20034;-59
2022/03/13 08:38:48;;;;;;;20.33;14.40;;;8.20;75.30;;;;;;5083185;28;20550;-60
2022/03/13 08:41:13;;;;;;;21.83;14.50;;;8.20;75.30;;;;;;5103825;28;20043;-60
2022/03/13 08:43:39;;;;;;;18.00;14.05;;;8.30;75.10;;;;;;5102486;28;20050;-60
2022/03/13 08:46:05;;;;;;;23.77;14.40;;;8.20;74.90;;;;;;5103309;28;20024;-60
2022/03/13 08:48:30;;;;;;;19.92;13.95;;;8.20;74.80;;;;;;5103556;28;20028;-60
2022/03/13 08:50:56;;;;;;;22.08;15.23;;;8.20;74.70;;;;;;5088070;28;20475;-60
2022/03/13 08:53:22;;;;;;;20.50;15.15;;;8.30;74.70;;;;;;5100103;28;20031;-61
2022/03/13 08:55:48;;;;;;;20.58;14.05;;;8.30;74.60;;;;;;5098637;28;20497;-60
2022/03/13 08:58:13;;;;;;;20.23;13.70;;;8.30;74.50;;;;;;5105233;28;20099;-60
2022/03/13 09:00:41;;;;;;;19.38;13.73;;;8.30;74.50;;;;;;5104706;28;20023;-60
2022/03/13 09:03:07;;;;;;;21.27;14.65;;;8.30;74.40;;;;;;5102180;28;20019;-60
2022/03/13 09:05:32;;;;;;;18.50;14.07;;;8.30;74.40;;;;;;5099680;28;20081;-60
2022/03/13 09:07:58;;;;;;;19.52;14.18;;;8.30;74.30;;;;;;5091828;28;20063;-59
2022/03/13 09:10:24;;;;;;;17.90;14.35;;;8.30;74.10;;;;;;5093439;28;20020;-59
2022/03/13 09:12:49;;;;;;;16.90;13.90;;;8.40;74.00;;;;;;5101093;28;20035;-60
2022/03/13 09:15:15;;;;;;;22.52;14.50;;;8.40;74.00;;;;;;5101711;28;20035;-60
2022/03/13 09:17:40;;;;;;;18.08;13.15;;;8.40;73.90;;;;;;5106340;28;20068;-60
2022/03/13 09:20:07;;;;;;;22.08;13.27;;;8.40;73.80;;;;;;5091881;28;20655;-60
2022/03/13 09:22:32;;;;;;;21.35;14.18;;;8.40;73.80;;;;;;5096673;28;20081;-60
2022/03/13 09:24:58;;;;;;;19.95;14.13;;;8.40;73.60;;;;;;5092084;28;20024;-60
2022/03/13 09:27:27;;;;;;;22.38;15.20;;;8.40;73.70;;;;;;5106775;28;20026;-60
2022/03/13 09:29:54;;;;;;;21.35;13.70;;;8.40;73.50;;;;;;5106465;28;20043;-61
2022/03/13 09:32:23;;;;;;;29.35;15.02;;;8.50;73.60;;;;;;5099806;28;20054;-60
2022/03/13 09:34:49;;;;;;;23.48;14.73;;;8.50;73.70;;;;;;5088737;28;20028;-61
2022/03/13 09:37:14;;;;;;;26.52;13.50;;;8.50;73.70;;;;;;5102787;28;20516;-61
2022/03/13 09:39:40;;;;;;;48.53;14.30;;;8.50;73.60;;;;;;5109171;28;20024;-61
2022/03/13 09:42:06;;;;;;;31.58;15.32;;;8.50;73.50;;;;;;5107352;28;20103;-60
2022/03/13 09:44:31;;;;;;;32.63;14.18;;;8.60;73.50;;;;;;5109396;28;20020;-60
2022/03/13 09:46:57;;;;;;;25.33;13.77;;;8.60;73.30;;;;;;5097057;28;20032;-60
2022/03/13 09:49:24;;;;;;;46.30;15.77;;;8.70;73.30;;;;;;5101015;28;20077;-61
2022/03/13 09:51:50;;;;;;;26.70;13.25;;;8.70;73.40;;;;;;5085513;28;20424;-60
2022/03/13 09:54:15;;;;;;;40.85;15.00;;;8.70;72.90;;;;;;5098672;28;20028;-59
2022/03/13 09:56:41;;;;;;;52.05;15.25;;;8.80;72.80;;;;;;5104668;28;20383;-61
2022/03/13 09:59:07;;;;;;;58.13;17.50;;;8.80;72.90;;;;;;5099523;28;20036;-60
2022/03/13 10:01:32;;;;;;;36.25;14.32;;;8.80;72.70;;;;;;5086999;28;20054;-61
2022/03/13 10:03:59;;;;;;;50.50;14.38;;;8.90;73.10;;;;;;5100274;28;20120;-60
2022/03/13 10:06:25;;;;;;;34.67;14.45;;;8.90;73.00;;;;;;5076475;28;20027;-60
2022/03/13 10:08:51;;;;;;;34.80;13.52;;;8.90;72.80;;;;;;5102974;28;20035;-61
2022/03/13 10:11:29;;;;;;;36.33;14.45;;;9.00;72.70;;;;;;5098155;28;20039;-60
2022/03/13 10:13:55;;;;;;;57.85;14.80;;;9.00;72.60;;;;;;5097704;28;20035;-61
2022/03/13 10:16:34;;;;;;;56.30;16.35;;;9.10;72.90;;;;;;5080611;28;20028;-60
2022/03/13 10:19:16;;;;;;;49.47;15.15;;;9.10;73.10;;;;;;5093570;28;20436;-60
2022/03/13 10:22:03;;;;;;;40.58;14.93;;;9.20;72.90;;;;;;5095350;28;20028;-61
2022/03/13 10:24:30;;;;;;;39.58;15.65;;;9.20;73.00;;;;;;5100984;28;20039;-60
2022/03/13 10:27:09;;;;;;;56.22;15.27;;;9.30;73.10;;;;;;5099896;28;20040;-60
2022/03/13 10:29:35;;;;;;;63.58;15.82;;;9.30;72.90;;;;;;5092613;28;20048;-60
2022/03/13 10:32:00;;;;;;;55.85;15.30;;;9.40;73.30;;;;;;5099942;28;20093;-61
2022/03/13 10:34:26;;;;;;;68.32;18.10;;;9.50;73.40;;;;;;5106286;28;20036;-60
2022/03/13 10:36:52;;;;;;;69.38;17.73;;;9.50;73.00;;;;;;5095981;28;20027;-60
2022/03/13 10:39:18;;;;;;;54.05;16.55;;;9.50;73.00;;;;;;5098587;28;20218;-60
2022/03/13 10:41:44;;;;;;;73.03;17.23;;;9.60;73.00;;;;;;5104185;28;20031;-61
2022/03/13 10:44:14;;;;;;;56.05;15.70;;;9.60;73.20;;;;;;5097747;28;20024;-60
2022/03/13 10:46:41;;;;;;;185.90;22.63;;;9.70;73.30;;;;;;5097993;28;20032;-60
2022/03/13 10:49:09;;;;;;;65.40;16.88;;;9.70;73.30;;;;;;5101573;28;20027;-60
2022/03/13 10:51:45;;;;;;;83.05;19.00;;;9.80;73.10;;;;;;5098607;28;20643;-60
2022/03/13 10:54:30;;;;;;;;;;;9.80;73.00;;;;;;5095757;28;20084;-60
2022/03/13 10:57:09;;;;;;;103.30;19.08;;;9.90;73.00;;;;;;5098350;28;19999;-61
2022/03/13 10:59:34;;;;;;;73.03;18.65;;;9.90;72.80;;;;;;5102451;28;20490;-59
2022/03/13 11:02:22;;;;;;;81.28;18.55;;;9.90;72.70;;;;;;5082440;28;20020;-60
2022/03/13 11:04:48;;;;;;;93.85;16.65;;;10.00;72.60;;;;;;5100852;28;20035;-61
2022/03/13 11:07:14;;;;;;;87.13;15.50;;;10.00;71.80;;;;;;5101402;28;21528;-60
2022/03/13 11:09:40;;;;;;;114.68;17.70;;;10.10;70.30;;;;;;5097713;28;20031;-61
2022/03/13 11:12:09;;;;;;;79.90;16.58;;;10.10;70.70;;;;;;5096237;28;20031;-63
2022/03/13 11:14:35;;;;;;;83.63;17.48;;;10.20;71.00;;;;;;5085855;28;20020;-60
2022/03/13 11:17:01;;;;;;;93.57;17.40;;;10.20;71.20;;;;;;5098882;28;20059;-61
2022/03/13 11:19:27;;;;;;;108.80;17.90;;;10.30;71.10;;;;;;5081568;28;20119;-60
2022/03/13 11:21:53;;;;;;;140.27;18.83;;;10.30;70.80;;;;;;5097805;28;20024;-60
2022/03/13 11:24:19;;;;;;;103.50;17.40;;;10.40;70.10;;;;;;5101483;28;20563;-60
2022/03/13 11:26:45;;;;;;;84.13;17.42;;;10.40;69.80;;;;;;5103943;28;20032;-60
2022/03/13 11:29:10;;;;;;;91.53;16.17;;;10.40;69.90;;;;;;5086659;28;20226;-61
2022/03/13 11:31:38;;;;;;;99.13;17.20;;;10.50;70.10;;;;;;5103253;28;20089;-60
2022/03/13 11:34:14;;;;;;;117.22;16.83;;;10.50;69.30;;;;;;5101275;28;20024;-60
2022/03/13 11:36:41;;;;;;;124.13;18.42;;;10.50;68.90;;;;;;5101997;28;20371;-60
2022/03/13 11:39:08;;;;;;;98.50;16.65;;;10.60;69.40;;;;;;5104321;28;20118;-60
2022/03/13 11:41:38;;;;;;;110.20;16.85;;;10.70;68.50;;;;;;5097016;28;20028;-60
2022/03/13 11:44:05;;;;;;;93.30;16.05;;;10.70;68.60;;;;;;5099538;28;20035;-60
2022/03/13 11:46:38;;;;;;;104.57;15.45;;;10.80;68.20;;;;;;5085044;28;20020;-60
2022/03/13 11:49:34;;;;;;;111.13;16.55;;;10.80;67.90;;;;;;5105737;28;20035;-60
2022/03/13 11:52:16;;;;;;;103.35;16.75;;;10.90;67.90;;;;;;5106031;28;20035;-60
2022/03/13 11:54:45;;;;;;;98.30;15.65;;;11.00;68.10;;;;;;5107056;28;20020;-60
2022/03/13 11:57:14;;;;;;;97.03;14.68;;;11.00;67.90;;;;;;5103605;28;20525;-60
2022/03/13 11:59:40;;;;;;;88.53;14.52;;;11.00;67.20;;;;;;5109867;27;20031;-60
2022/03/13 12:02:12;;;;;;;120.80;17.35;;;11.10;66.30;;;;;;5101808;28;21792;-61
2022/03/13 12:04:38;;;;;;;107.75;15.63;;;11.10;65.90;;;;;;5099345;28;20951;-60
2022/03/13 12:07:06;;;;;;;76.28;13.15;;;11.20;65.80;;;;;;5098876;28;20151;-60
2022/03/13 12:09:42;;;;;;;70.68;13.68;;;11.20;65.40;;;;;;5105047;28;20039;-60
2022/03/13 12:12:17;;;;;;;102.43;17.13;;;11.30;65.00;;;;;;5098291;28;20187;-60
2022/03/13 12:15:02;;;;;;;96.57;15.32;;;11.40;65.20;;;;;;5100701;28;20027;-61
2022/03/13 12:17:44;;;;;;;126.47;17.00;;;11.50;65.00;;;;;;5097600;28;20043;-61
2022/03/13 12:20:19;;;;;;;119.53;15.90;;;11.50;65.30;;;;;;5095788;28;20443;-60
2022/03/13 12:23:00;;;;;;;109.32;16.58;;;11.60;65.80;;;;;;5085194;28;20032;-61
2022/03/13 12:25:27;;;;;;;97.25;15.57;;;11.60;65.90;;;;;;5095620;28;20046;-60
2022/03/13 12:27:55;;;;;;;118.35;17.23;;;11.70;65.50;;;;;;5083336;28;20058;-60
2022/03/13 12:30:29;;;;;;;150.25;19.42;;;11.70;65.10;;;;;;5093064;28;20054;-60
2022/03/13 12:33:14;;;;;;;117.75;17.40;;;11.80;65.80;;;;;;5102557;28;20032;-60